createdAt,value
2023-05-16T00:00:20.554Z,98.22
2023-05-16T00:05:19.652Z,98.73
2023-05-16T00:10:22.685Z,99.99
2023-05-16T00:15:21.856Z,99.99
2023-05-16T00:20:22.913Z,99.99
2023-05-16T00:25:24.993Z,99.99
2023-05-16T00:30:25.482Z,99.99
2023-05-16T00:35:24.772Z,99.99
2023-05-16T00:40:26.961Z,99.99
2023-05-16T00:45:27.189Z,99.99
2023-05-16T00:50:26.378Z,99.99
2023-05-16T00:55:27.727Z,99.99
2023-05-16T01:00:28.953Z,99.99
2023-05-16T01:05:30.200Z,99.99
2023-05-16T01:10:32.256Z,99.99
2023-05-16T01:15:31.378Z,99.99
2023-05-16T01:20:32.403Z,99.99
2023-05-16T01:25:33.543Z,99.99
2023-05-16T01:30:34.630Z,99.99
2023-05-16T01:35:36.657Z,99.99
2023-05-16T01:40:36.793Z,99.99
2023-05-16T01:45:37.820Z,99.99
2023-05-16T01:50:37.854Z,99.99
2023-05-16T01:55:37.089Z,99.99
2023-05-16T02:00:39.287Z,99.99
2023-05-16T02:05:39.688Z,99.99
2023-05-16T02:10:39.741Z,99.99
2023-05-16T02:15:38.816Z,99.99
2023-05-16T02:20:40.846Z,99.99
2023-05-16T02:25:40.019Z,99.99
2023-05-16T02:30:41.178Z,99.99
2023-05-16T02:35:42.197Z,99.99
2023-05-16T02:40:44.251Z,99.99
2023-05-16T02:45:43.415Z,99.99
2023-05-16T02:50:44.586Z,99.99
2023-05-16T02:55:45.734Z,99.99
2023-05-16T03:00:46.845Z,99.99
2023-05-16T03:05:47.968Z,99.99
2023-05-16T03:10:49.085Z,99.99
2023-05-16T03:15:50.336Z,99.99
2023-05-16T03:20:51.355Z,99.99
2023-05-16T03:25:51.504Z,99.99
2023-05-16T03:30:52.608Z,99.99
2023-05-16T03:35:53.736Z,99.99
2023-05-16T03:40:54.865Z,99.99
2023-05-16T03:45:56.000Z,99.99
2023-05-16T03:50:59.093Z,99.99
2023-05-16T03:55:58.313Z,99.99
2023-05-16T04:00:59.473Z,99.99
2023-05-16T04:06:00.674Z,99.99
2023-05-16T04:11:01.698Z,99.99
2023-05-16T04:16:00.754Z,99.99
2023-05-16T04:21:03.908Z,99.99
2023-05-16T04:26:04.983Z,99.99
2023-05-16T04:31:06.132Z,99.99
2023-05-16T04:36:07.184Z,99.99
2023-05-16T04:41:08.361Z,99.99
2023-05-16T04:46:09.479Z,99.99
2023-05-16T04:51:10.563Z,99.99
2023-05-16T04:56:11.626Z,99.99
2023-05-16T05:01:12.759Z,99.99
2023-05-16T05:06:13.757Z,99.99
2023-05-16T05:11:14.925Z,99.99
2023-05-16T05:16:15.979Z,99.99
2023-05-16T05:21:17.087Z,99.99
2023-05-16T05:26:19.150Z,99.99
2023-05-16T05:31:18.250Z,99.99
2023-05-16T05:36:19.243Z,99.99
2023-05-16T05:41:19.397Z,99.99
2023-05-16T05:46:20.516Z,99.99
2023-05-16T05:51:21.660Z,99.99
2023-05-16T05:56:22.767Z,99.99
2023-05-16T06:01:24.825Z,99.99
2023-05-16T06:06:23.864Z,99.99
2023-05-16T06:11:25.312Z,99.99
2023-05-16T06:16:26.485Z,99.99
2023-05-16T06:21:28.476Z,99.99
2023-05-16T06:26:27.486Z,99.99
2023-05-16T06:31:29.597Z,99.99
2023-05-16T06:36:28.706Z,99.99
2023-05-16T06:41:30.048Z,99.99
2023-05-16T06:46:31.126Z,99.99
2023-05-16T06:51:33.189Z,99.99
2023-05-16T06:56:32.214Z,99.99
2023-05-16T07:01:35.296Z,99.99
2023-05-16T07:06:35.342Z,99.99
2023-05-16T07:11:34.401Z,99.99
2023-05-16T07:16:37.508Z,98.01
2023-05-16T07:21:38.536Z,98.92
2023-05-16T07:26:37.758Z,96.95
2023-05-16T07:31:38.942Z,96.34
2023-05-16T07:36:40.079Z,90.25
2023-05-16T07:41:42.110Z,96.54
2023-05-16T07:46:41.380Z,94.57
2023-05-16T07:51:43.586Z,88.60
2023-05-16T07:56:42.754Z,90.95
2023-05-16T08:01:43.802Z,90.50
2023-05-16T08:06:46.860Z,90.67
2023-05-16T08:11:45.970Z,92.42
2023-05-16T08:16:49.005Z,91.93
2023-05-16T08:21:48.050Z,92.22
2023-05-16T08:26:49.077Z,92.55
2023-05-16T08:31:50.207Z,92.55
2023-05-16T08:36:52.288Z,89.56
2023-05-16T08:41:52.320Z,88.34
2023-05-16T08:46:51.494Z,90.44
2023-05-16T08:51:52.514Z,87.53
2023-05-16T08:56:53.575Z,88.60
2023-05-16T09:01:54.628Z,88.06
2023-05-16T09:06:55.676Z,86.08
2023-05-16T09:11:57.707Z,86.74
2023-05-16T09:16:56.756Z,88.01
2023-05-16T09:21:57.796Z,86.25
2023-05-16T09:27:00.863Z,84.72
2023-05-16T09:31:59.904Z,85.98
2023-05-16T09:37:01.937Z,86.27
2023-05-16T09:42:01.004Z,88.50
2023-05-16T09:47:02.045Z,89.97
2023-05-16T09:52:03.113Z,90.94
2023-05-16T09:57:05.166Z,91.41
2023-05-16T10:02:05.259Z,92.77
2023-05-16T10:07:05.353Z,97.15
2023-05-16T10:12:05.385Z,96.66
2023-05-16T10:17:04.415Z,95.45
2023-05-16T10:22:05.457Z,93.12
2023-05-16T10:27:06.512Z,93.22
2023-05-16T10:32:09.600Z,91.96
2023-05-16T10:37:08.641Z,91.96
2023-05-16T10:42:09.704Z,92.31
2023-05-16T10:47:11.730Z,93.61
2023-05-16T10:52:10.819Z,94.71
2023-05-16T10:57:11.835Z,95.32
2023-05-16T11:02:12.947Z,95.26
2023-05-16T11:07:13.989Z,96.79
2023-05-16T11:12:16.064Z,95.97
2023-05-16T11:17:15.274Z,95.05
2023-05-16T11:22:16.377Z,92.48
2023-05-16T11:27:17.404Z,92.19
2023-05-16T11:32:19.450Z,91.48
2023-05-16T11:37:18.517Z,94.46
2023-05-16T11:42:19.557Z,93.81
2023-05-16T11:47:21.785Z,93.97
2023-05-16T11:52:20.830Z,92.40
2023-05-16T11:57:21.865Z,91.73
2023-05-16T12:02:23.963Z,93.95
2023-05-16T12:07:24.064Z,95.86
2023-05-16T12:12:24.087Z,99.88
2023-05-16T12:17:23.135Z,97.78
2023-05-16T12:22:25.165Z,99.97
2023-05-16T12:27:24.248Z,99.99
2023-05-16T12:32:26.392Z,99.99
2023-05-16T12:37:26.397Z,99.99
2023-05-16T12:42:26.453Z,99.99
2023-05-16T12:47:26.521Z,99.99
2023-05-16T12:52:25.551Z,99.99
2023-05-16T12:57:27.605Z,99.99
2023-05-16T13:02:27.684Z,99.99
2023-05-16T13:07:27.714Z,99.99
2023-05-16T13:12:26.762Z,99.99
2023-05-16T13:17:27.807Z,99.99
2023-05-16T13:22:28.856Z,99.99
2023-05-16T13:27:30.905Z,99.99
2023-05-16T13:32:31.025Z,99.99
2023-05-16T13:37:30.078Z,99.99
2023-05-16T13:42:31.137Z,99.99
2023-05-16T13:47:32.233Z,99.99
2023-05-16T13:52:35.452Z,99.99
2023-05-16T13:57:34.483Z,99.99
2023-05-16T14:02:33.643Z,99.99
2023-05-16T14:07:35.658Z,99.99
2023-05-16T14:12:34.748Z,99.99
2023-05-16T14:17:35.876Z,99.99
2023-05-16T14:22:37.955Z,99.99
2023-05-16T14:27:39.075Z,99.99
2023-05-16T14:32:38.470Z,99.99
2023-05-16T14:37:37.785Z,99.99
2023-05-16T14:42:38.955Z,99.99
2023-05-16T14:47:40.466Z,99.99
2023-05-16T14:52:39.863Z,99.99
2023-05-16T14:57:44.069Z,99.99
2023-05-16T15:02:42.701Z,99.99
2023-05-16T15:07:45.923Z,99.99
2023-05-16T15:12:46.318Z,99.99
2023-05-16T15:17:45.863Z,99.99
2023-05-16T15:22:44.350Z,99.99
2023-05-16T15:27:46.746Z,99.99
2023-05-16T15:32:47.345Z,99.99
2023-05-16T15:37:46.819Z,99.99
2023-05-16T15:42:46.309Z,99.99
2023-05-16T15:47:45.935Z,99.99
2023-05-16T15:52:46.445Z,99.99
2023-05-16T15:57:45.966Z,99.99
2023-05-16T16:02:45.626Z,99.99
2023-05-16T16:07:46.252Z,99.99
2023-05-16T16:12:45.824Z,99.99
2023-05-16T16:17:45.452Z,99.99
2023-05-16T16:22:44.961Z,99.99
2023-05-16T16:27:45.520Z,99.99
2023-05-16T16:32:45.138Z,99.99
2023-05-16T16:37:54.594Z,99.99
2023-05-16T16:42:45.003Z,99.99
2023-05-16T16:47:44.646Z,99.99
2023-05-16T16:52:45.193Z,99.99
2023-05-16T16:57:45.783Z,99.99
2023-05-16T17:02:45.428Z,99.99
2023-05-16T17:07:45.005Z,99.99
2023-05-16T17:12:45.574Z,99.99
2023-05-16T17:17:45.170Z,99.99
2023-05-16T17:22:44.725Z,99.99
2023-05-16T17:27:45.371Z,99.99
2023-05-16T17:32:46.010Z,99.99
2023-05-16T17:37:47.618Z,99.99
2023-05-16T17:42:45.233Z,99.99
2023-05-16T17:47:44.990Z,99.99
2023-05-16T17:52:44.600Z,99.99
2023-05-16T17:57:44.197Z,99.99
2023-05-16T18:02:44.910Z,99.99
2023-05-16T18:07:44.454Z,99.99
2023-05-16T18:12:44.068Z,99.99
2023-05-16T18:17:44.744Z,99.99
2023-05-16T18:22:44.368Z,99.99
2023-05-16T18:27:43.955Z,99.99
2023-05-16T18:32:43.586Z,99.99
2023-05-16T18:37:44.535Z,99.99
2023-05-16T18:42:45.240Z,99.99
2023-05-16T18:47:44.789Z,99.99
2023-05-16T18:52:46.606Z,99.99
2023-05-16T18:57:43.244Z,99.99
2023-05-16T19:02:47.333Z,99.99
2023-05-16T19:07:45.621Z,99.99
2023-05-16T19:12:45.203Z,99.99
2023-05-16T19:17:45.847Z,99.99
2023-05-16T19:22:46.474Z,99.99
2023-05-16T19:27:47.127Z,99.99
2023-05-16T19:32:46.794Z,99.99
2023-05-16T19:37:46.402Z,99.99
2023-05-16T19:42:45.999Z,99.99
2023-05-16T19:48:07.697Z,99.99
2023-05-16T19:52:45.282Z,99.99
2023-05-16T19:57:44.830Z,99.99
2023-05-16T20:02:44.481Z,99.99
2023-05-16T20:07:44.043Z,99.99
2023-05-16T20:12:43.484Z,99.99
2023-05-16T20:17:45.340Z,99.99
2023-05-16T20:22:45.927Z,99.99
2023-05-16T20:27:45.540Z,99.99
2023-05-16T20:32:46.312Z,99.99
2023-05-16T20:37:46.568Z,99.99
2023-05-16T20:42:46.107Z,99.99
2023-05-16T20:47:46.814Z,99.99
2023-05-16T20:52:46.260Z,99.99
2023-05-16T20:57:47.440Z,99.99
2023-05-16T21:02:49.514Z,99.99
2023-05-16T21:07:48.593Z,99.99
2023-05-16T21:12:49.632Z,99.99
2023-05-16T21:17:50.764Z,99.99
2023-05-16T21:22:51.788Z,99.99
2023-05-16T21:27:52.827Z,99.99
2023-05-16T21:32:54.910Z,99.99
2023-05-16T21:37:53.925Z,99.99
2023-05-16T21:42:55.983Z,99.99
2023-05-16T21:47:55.153Z,99.99
2023-05-16T21:52:57.196Z,99.99
2023-05-16T21:57:57.226Z,99.99
2023-05-16T22:02:56.355Z,99.99
2023-05-16T22:07:58.464Z,99.99
2023-05-16T22:12:57.520Z,99.99
2023-05-16T22:17:57.647Z,99.99
2023-05-16T22:22:59.723Z,99.99
2023-05-16T22:27:59.745Z,99.99
2023-05-16T22:32:59.894Z,99.99
2023-05-16T22:37:58.937Z,99.99
2023-05-16T22:43:00.970Z,99.99
2023-05-16T22:48:00.026Z,99.99
2023-05-16T22:53:01.066Z,99.99
2023-05-16T22:58:03.123Z,99.99
2023-05-16T23:03:02.360Z,99.99
2023-05-16T23:08:03.682Z,99.99
2023-05-16T23:13:04.728Z,99.99
2023-05-16T23:18:05.886Z,99.99
2023-05-16T23:23:07.950Z,99.99
2023-05-16T23:28:06.972Z,99.99
2023-05-16T23:33:08.235Z,99.99
2023-05-16T23:38:10.336Z,99.99
2023-05-16T23:43:09.402Z,99.99
2023-05-16T23:48:11.556Z,99.99
2023-05-16T23:53:11.710Z,98.66
2023-05-16T23:58:11.771Z,99.79
